e-Mail: Password: Lost your password? Click here. - Register a new user

c h a v e z j u a r e z . c o m

Weather - Tiempo - Wetter - Temps

METAR DATA MMMX (Mexico City)

Mexico City / Licenci, Mexico (MMMX) 19-26N 099-06W
Dec 16, 2018 - 12:45 PM EST / 2018.12.16 1745 UTC
Wind: Calm:0
Visibility: 4 mile(s):0
Sky conditions: clear
Temperature: 60 F (16 C)
Dew Point: 35 F (2 C)
Relative Humidity: 38%
Pressure (altimeter): 30.44 in. Hg (1030 hPa)
Pressure tendency: 0.04 inches (1.3 hPa) lower than three hours ago
ob: MMMX 161745Z 00000KT 4SM SKC 16/02 A3044 NOSIG RMK SLP175 57013 914 HZY ISOL CI
cycle: 18

Mexico City

St. Prex




Current weather alarms for Switzerland


www.wetteralarm.ch